createdAt,value
2022-08-17T00:00:49.701Z,21.78
2022-08-17T00:03:24.271Z,21.52
2022-08-17T00:05:55.437Z,21.31
2022-08-17T00:08:27.884Z,21.29
2022-08-17T00:10:57.635Z,21.50
2022-08-17T00:13:29.578Z,21.40
2022-08-17T00:16:02.316Z,21.52
2022-08-17T00:19:06.183Z,21.56
2022-08-17T00:21:25.132Z,21.58
2022-08-17T00:23:56.399Z,21.40
2022-08-17T00:26:44.352Z,21.38
2022-08-17T00:29:14.900Z,21.28
2022-08-17T00:31:49.536Z,21.53
2022-08-17T00:34:19.083Z,21.49
2022-08-17T00:36:48.058Z,19.64
2022-08-17T00:39:18.266Z,20.08
2022-08-17T00:41:47.784Z,20.42
2022-08-17T00:44:16.812Z,20.28
2022-08-17T00:46:47.922Z,20.25
2022-08-17T00:49:19.655Z,20.49
2022-08-17T00:51:53.446Z,20.48
2022-08-17T00:54:28.249Z,20.49
2022-08-17T00:57:03.991Z,20.31
2022-08-17T00:59:38.518Z,20.44
2022-08-17T01:02:09.955Z,20.51
2022-08-17T01:04:39.867Z,20.60
2022-08-17T01:07:11.314Z,20.43
2022-08-17T01:09:42.708Z,20.51
2022-08-17T01:12:13.365Z,20.39
2022-08-17T01:14:42.702Z,20.35
2022-08-17T01:17:11.892Z,20.41
2022-08-17T01:19:43.554Z,20.55
2022-08-17T01:22:25.380Z,20.58
2022-08-17T01:24:59.159Z,20.59
2022-08-17T01:27:29.837Z,20.44
2022-08-17T01:30:02.734Z,20.62
2022-08-17T01:32:32.181Z,20.52
2022-08-17T01:35:01.940Z,20.43
2022-08-17T01:37:35.654Z,20.48
2022-08-17T01:40:10.469Z,20.53
2022-08-17T01:42:45.906Z,20.20
2022-08-17T01:45:18.217Z,20.32
2022-08-17T01:47:47.293Z,20.13
2022-08-17T01:50:20.860Z,19.97
2022-08-17T01:52:55.299Z,20.25
2022-08-17T01:55:30.687Z,20.36
2022-08-17T01:57:59.542Z,20.17
2022-08-17T02:00:59.448Z,20.15
2022-08-17T02:03:20.378Z,19.96
2022-08-17T02:05:50.104Z,20.03
2022-08-17T02:08:21.387Z,20.07
2022-08-17T02:11:12.093Z,20.09
2022-08-17T02:13:41.805Z,20.03
2022-08-17T02:16:10.902Z,20.15
2022-08-17T02:18:40.114Z,20.02
2022-08-17T02:21:09.503Z,19.86
2022-08-17T02:23:43.016Z,20.05
2022-08-17T02:26:25.806Z,19.97
2022-08-17T02:28:55.820Z,19.61
2022-08-17T02:31:24.803Z,19.81
2022-08-17T02:34:00.282Z,19.75
2022-08-17T02:36:34.948Z,19.00
2022-08-17T02:39:08.745Z,19.25
2022-08-17T02:41:38.028Z,19.54
2022-08-17T02:44:07.774Z,19.54
2022-08-17T02:46:37.063Z,19.52
2022-08-17T02:49:06.188Z,19.62
2022-08-17T02:51:35.572Z,19.58
2022-08-17T02:54:40.592Z,19.65
2022-08-17T02:56:54.774Z,19.44
2022-08-17T02:59:24.385Z,19.57
2022-08-17T03:01:53.764Z,19.43
2022-08-17T03:04:22.823Z,19.58
2022-08-17T03:06:51.727Z,19.47
2022-08-17T03:09:21.961Z,19.24
2022-08-17T03:11:53.163Z,19.23
2022-08-17T03:14:26.163Z,19.01
2022-08-17T03:16:55.510Z,19.03
2022-08-17T03:19:24.576Z,19.15
2022-08-17T03:21:55.164Z,19.01
2022-08-17T03:24:28.835Z,19.29
2022-08-17T03:26:57.982Z,19.16
2022-08-17T03:29:26.889Z,19.01
2022-08-17T03:31:55.760Z,19.01
2022-08-17T03:34:24.627Z,19.10
2022-08-17T03:36:53.546Z,18.99
2022-08-17T03:39:22.418Z,19.02
2022-08-17T03:41:52.789Z,18.84
2022-08-17T03:44:21.686Z,19.12
2022-08-17T03:47:07.813Z,19.21
2022-08-17T03:49:54.043Z,19.19
2022-08-17T03:52:40.152Z,19.22
2022-08-17T03:55:35.945Z,19.29
2022-08-17T03:58:06.733Z,19.23
2022-08-17T04:00:39.741Z,19.19
2022-08-17T04:03:09.078Z,19.33
2022-08-17T04:05:38.352Z,19.36
2022-08-17T04:08:10.317Z,19.47
2022-08-17T04:10:44.817Z,19.47
2022-08-17T04:13:15.844Z,19.52
2022-08-17T04:15:54.355Z,19.63
2022-08-17T04:18:23.286Z,19.61
2022-08-17T04:20:52.313Z,19.51
2022-08-17T04:23:21.194Z,19.50
2022-08-17T04:25:53.873Z,19.30
2022-08-17T04:28:24.210Z,19.58
2022-08-17T04:30:53.198Z,19.61
2022-08-17T04:33:24.132Z,19.20
2022-08-17T04:35:55.793Z,19.44
2022-08-17T04:38:26.629Z,19.55
2022-08-17T04:41:13.609Z,19.83
2022-08-17T04:43:45.204Z,19.99
2022-08-17T04:46:17.052Z,19.44
2022-08-17T04:48:48.167Z,19.20
2022-08-17T04:51:20.235Z,19.92
2022-08-17T04:53:54.193Z,19.97
2022-08-17T04:56:25.195Z,20.34
2022-08-17T04:58:59.987Z,20.55
2022-08-17T05:01:31.286Z,20.57
2022-08-17T05:04:32.125Z,20.74
2022-08-17T05:06:52.651Z,21.04
2022-08-17T05:09:21.539Z,21.33
2022-08-17T05:11:50.428Z,21.31
2022-08-17T05:14:20.679Z,21.31
2022-08-17T05:16:51.166Z,21.66
2022-08-17T05:19:20.012Z,21.81
2022-08-17T05:21:50.304Z,21.65
2022-08-17T05:24:38.460Z,21.76
2022-08-17T05:27:08.970Z,21.96
2022-08-17T05:29:39.425Z,21.73
2022-08-17T05:32:38.614Z,22.26
2022-08-17T05:35:01.036Z,21.90
2022-08-17T05:37:29.936Z,21.73
2022-08-17T05:39:58.876Z,22.14
2022-08-17T05:42:27.735Z,22.96
2022-08-17T05:44:59.847Z,23.66
2022-08-17T05:47:29.381Z,23.93
2022-08-17T05:49:59.139Z,24.31
2022-08-17T05:52:39.271Z,24.53
2022-08-17T05:55:18.942Z,24.27
2022-08-17T05:58:01.153Z,24.43
2022-08-17T06:00:44.173Z,24.50
2022-08-17T06:03:34.315Z,25.07
2022-08-17T06:06:15.987Z,24.63
2022-08-17T06:08:51.670Z,24.59
2022-08-17T06:11:32.681Z,24.36
2022-08-17T06:14:18.380Z,24.26
2022-08-17T06:16:52.714Z,24.27
2022-08-17T06:19:31.733Z,24.93
2022-08-17T06:22:02.767Z,25.18
2022-08-17T06:24:40.368Z,25.78
2022-08-17T06:27:15.072Z,26.52
2022-08-17T06:29:51.939Z,26.21
2022-08-17T06:32:23.009Z,26.26
2022-08-17T06:34:53.801Z,25.21
2022-08-17T06:37:48.987Z,24.14
2022-08-17T06:40:51.329Z,24.43
2022-08-17T06:43:35.035Z,25.00
2022-08-17T06:46:10.999Z,25.61
2022-08-17T06:48:48.463Z,24.96
2022-08-17T06:51:25.170Z,25.97
2022-08-17T06:54:00.828Z,26.44
2022-08-17T06:56:52.970Z,27.29
2022-08-17T06:59:36.261Z,27.88
2022-08-17T07:02:29.428Z,27.03
2022-08-17T07:05:23.713Z,28.24
2022-08-17T07:08:03.412Z,28.72
2022-08-17T07:10:48.227Z,29.28
2022-08-17T07:13:35.218Z,28.13
2022-08-17T07:16:19.562Z,28.07
2022-08-17T07:18:51.057Z,27.88
2022-08-17T07:21:40.792Z,28.45
2022-08-17T07:24:37.381Z,29.27
2022-08-17T07:27:14.691Z,28.68
2022-08-17T07:29:48.911Z,29.22
2022-08-17T07:32:21.305Z,28.58
2022-08-17T07:35:15.273Z,28.76
2022-08-17T07:37:51.062Z,27.91
2022-08-17T07:40:30.849Z,28.53
2022-08-17T07:43:23.611Z,29.32
2022-08-17T07:46:21.423Z,29.52
2022-08-17T07:48:53.758Z,29.79
2022-08-17T07:51:26.978Z,29.63
2022-08-17T07:54:13.979Z,29.80
2022-08-17T07:56:47.239Z,30.36
2022-08-17T07:59:23.007Z,30.75
2022-08-17T08:02:10.252Z,30.59
2022-08-17T08:04:59.720Z,30.26
2022-08-17T08:07:32.143Z,30.15
2022-08-17T08:10:08.130Z,29.87
2022-08-17T08:12:38.537Z,30.09
2022-08-17T08:15:18.835Z,30.74
2022-08-17T08:17:52.259Z,31.69
2022-08-17T08:20:51.555Z,33.27
2022-08-17T08:23:25.700Z,32.11
2022-08-17T08:26:18.625Z,32.40
2022-08-17T08:28:55.032Z,33.01
2022-08-17T08:31:31.572Z,32.89
2022-08-17T08:34:53.348Z,32.40
2022-08-17T08:37:16.366Z,33.80
2022-08-17T08:39:57.618Z,33.73
2022-08-17T08:42:38.388Z,31.84
2022-08-17T08:45:14.417Z,31.36
2022-08-17T08:48:05.535Z,32.37
2022-08-17T08:50:47.565Z,32.64
2022-08-17T08:53:31.971Z,33.63
2022-08-17T08:56:06.232Z,33.02
2022-08-17T08:58:48.377Z,33.62
2022-08-17T09:01:27.784Z,32.76
2022-08-17T09:04:23.381Z,32.51
2022-08-17T09:07:09.813Z,32.90
2022-08-17T09:09:50.702Z,32.69
2022-08-17T09:12:27.089Z,32.19
2022-08-17T09:15:02.358Z,33.03
2022-08-17T09:17:36.213Z,32.76
2022-08-17T09:20:14.460Z,31.94
2022-08-17T09:23:04.078Z,31.98
2022-08-17T09:25:36.157Z,31.74
2022-08-17T09:28:08.257Z,32.96
2022-08-17T09:30:46.200Z,32.70
2022-08-17T09:33:22.872Z,33.74
2022-08-17T09:35:56.774Z,33.91
2022-08-17T09:38:32.646Z,33.79
2022-08-17T09:41:10.687Z,32.40
2022-08-17T09:43:44.882Z,32.12
2022-08-17T09:46:18.853Z,32.42
2022-08-17T09:48:55.394Z,33.64
2022-08-17T09:51:33.198Z,34.69
2022-08-17T09:54:34.781Z,34.57
2022-08-17T09:57:28.008Z,35.44
2022-08-17T10:00:16.458Z,35.51
2022-08-17T10:03:20.338Z,35.57
2022-08-17T10:05:57.190Z,35.24
2022-08-17T10:08:36.641Z,36.74
2022-08-17T10:11:22.545Z,36.20
2022-08-17T10:14:24.127Z,34.84
2022-08-17T10:17:05.701Z,34.86
2022-08-17T10:19:39.859Z,33.39
2022-08-17T10:22:38.785Z,32.91
2022-08-17T10:25:48.595Z,33.24
2022-08-17T10:28:28.842Z,33.57
2022-08-17T10:31:33.789Z,34.97
2022-08-17T10:34:09.448Z,34.79
2022-08-17T10:36:48.468Z,35.76
2022-08-17T10:39:30.686Z,35.90
2022-08-17T10:42:05.835Z,35.47
2022-08-17T10:44:47.569Z,36.34
2022-08-17T10:47:18.871Z,36.02
2022-08-17T10:49:53.989Z,35.97
2022-08-17T10:52:50.162Z,36.39
2022-08-17T10:55:20.712Z,37.08
2022-08-17T10:57:51.275Z,36.19
2022-08-17T11:00:59.909Z,36.80
2022-08-17T11:03:29.681Z,37.43
2022-08-17T11:06:12.627Z,34.37
2022-08-17T11:09:23.289Z,34.78
2022-08-17T11:12:16.133Z,36.97
2022-08-17T11:14:58.035Z,37.54
2022-08-17T11:17:49.833Z,38.32
2022-08-17T11:20:38.770Z,38.00
2022-08-17T11:23:46.028Z,36.09
2022-08-17T11:26:27.020Z,34.40
2022-08-17T11:29:02.252Z,34.38
2022-08-17T11:31:38.431Z,34.67
2022-08-17T11:34:19.076Z,35.01
2022-08-17T11:37:30.419Z,36.73
2022-08-17T11:40:29.043Z,38.28
2022-08-17T11:43:15.427Z,38.57
2022-08-17T11:46:02.640Z,38.33
2022-08-17T11:48:56.250Z,39.37
2022-08-17T11:51:46.503Z,40.35
2022-08-17T11:54:41.880Z,39.74
2022-08-17T11:57:48.295Z,36.67
2022-08-17T12:00:49.273Z,34.75
2022-08-17T12:03:54.042Z,33.73
2022-08-17T12:06:33.220Z,33.07
2022-08-17T12:09:08.910Z,33.77
2022-08-17T12:11:56.305Z,33.33
2022-08-17T12:15:08.168Z,33.50
2022-08-17T12:17:40.836Z,33.88
2022-08-17T12:20:16.379Z,34.11
2022-08-17T12:22:54.976Z,34.92
2022-08-17T12:25:33.237Z,35.62
2022-08-17T12:28:06.786Z,36.22
2022-08-17T12:30:37.578Z,34.74
2022-08-17T12:33:25.314Z,34.35
2022-08-17T12:36:02.977Z,34.14
2022-08-17T12:38:34.589Z,35.26
2022-08-17T12:41:20.916Z,36.39
2022-08-17T12:44:02.419Z,36.38
2022-08-17T12:46:47.740Z,37.45
2022-08-17T12:49:24.058Z,38.30
2022-08-17T12:52:12.163Z,37.05
2022-08-17T12:54:47.924Z,36.82
2022-08-17T12:57:20.031Z,37.72
2022-08-17T12:59:53.227Z,38.49
2022-08-17T13:02:30.014Z,38.82
2022-08-17T13:05:01.837Z,38.39
2022-08-17T13:07:36.464Z,37.62
2022-08-17T13:10:06.009Z,36.90
2022-08-17T13:12:37.005Z,36.86
2022-08-17T13:15:07.793Z,34.92
2022-08-17T13:17:37.627Z,33.82
2022-08-17T13:20:16.225Z,34.22
2022-08-17T13:22:54.465Z,34.02
2022-08-17T13:25:23.482Z,33.99
2022-08-17T13:27:54.827Z,33.81
2022-08-17T13:30:28.209Z,33.30
2022-08-17T13:32:58.671Z,33.03
2022-08-17T13:35:44.250Z,32.50
2022-08-17T13:41:34.707Z,35.98
2022-08-17T13:44:04.666Z,37.15
2022-08-17T13:46:35.326Z,37.39
2022-08-17T13:49:07.046Z,38.10
2022-08-17T13:51:42.980Z,38.06
2022-08-17T13:54:27.143Z,37.65
2022-08-17T13:57:01.501Z,37.40
2022-08-17T13:59:52.633Z,38.01
2022-08-17T14:02:28.254Z,37.68
2022-08-17T14:05:00.556Z,36.42
2022-08-17T14:07:33.935Z,36.87
2022-08-17T14:10:09.072Z,37.25
2022-08-17T14:12:40.270Z,37.30
2022-08-17T14:15:10.876Z,36.43
2022-08-17T14:17:39.799Z,35.91
2022-08-17T14:20:12.233Z,34.84
2022-08-17T14:22:44.914Z,34.79
2022-08-17T14:25:16.576Z,34.66
2022-08-17T14:27:53.663Z,34.69
2022-08-17T14:30:25.674Z,34.67
2022-08-17T14:32:58.200Z,33.95
2022-08-17T14:35:29.442Z,33.98
2022-08-17T14:37:58.901Z,33.66
2022-08-17T14:40:28.137Z,34.33
2022-08-17T14:42:58.896Z,34.96
2022-08-17T14:45:32.634Z,36.04
2022-08-17T14:48:07.726Z,35.90
2022-08-17T14:50:40.651Z,35.92
2022-08-17T14:53:12.731Z,35.58
2022-08-17T14:55:41.730Z,36.14
2022-08-17T14:58:12.028Z,36.36
2022-08-17T15:00:43.643Z,36.91
2022-08-17T15:03:12.648Z,37.20
2022-08-17T15:05:41.703Z,37.09
2022-08-17T15:08:11.001Z,36.92
2022-08-17T15:10:40.212Z,36.87
2022-08-17T15:13:18.411Z,36.99
2022-08-17T15:15:52.645Z,37.04
2022-08-17T15:18:22.767Z,37.01
2022-08-17T15:20:52.778Z,36.35
2022-08-17T15:23:23.610Z,36.61
2022-08-17T15:25:54.585Z,36.40
2022-08-17T15:28:25.134Z,35.35
2022-08-17T15:30:55.002Z,34.45
2022-08-17T15:33:29.492Z,33.91
2022-08-17T15:36:01.491Z,33.58
2022-08-17T15:38:39.216Z,33.43
2022-08-17T15:41:09.583Z,34.01
2022-08-17T15:43:40.196Z,33.28
2022-08-17T15:46:12.469Z,33.36
2022-08-17T15:48:43.688Z,33.21
2022-08-17T15:51:15.149Z,33.84
2022-08-17T15:53:46.477Z,34.32
2022-08-17T15:56:16.439Z,35.10
2022-08-17T15:58:47.826Z,35.19
2022-08-17T16:02:20.001Z,34.88
2022-08-17T16:04:29.792Z,33.82
2022-08-17T16:06:59.119Z,34.41
2022-08-17T16:09:28.385Z,34.82
2022-08-17T16:11:57.527Z,34.79
2022-08-17T16:14:33.558Z,33.98
2022-08-17T16:17:04.653Z,34.26
2022-08-17T16:19:34.402Z,34.22
2022-08-17T16:22:03.903Z,34.14
2022-08-17T16:24:33.273Z,34.34
2022-08-17T16:27:02.261Z,34.79
2022-08-17T16:29:32.591Z,34.77
2022-08-17T16:32:10.006Z,34.33
2022-08-17T16:34:39.073Z,34.45
2022-08-17T16:37:08.471Z,34.31
2022-08-17T16:39:38.581Z,33.87
2022-08-17T16:42:23.304Z,33.67
2022-08-17T16:44:54.961Z,33.95
2022-08-17T16:47:23.907Z,33.56
2022-08-17T16:49:53.396Z,33.22
2022-08-17T16:52:32.552Z,32.86
2022-08-17T16:55:02.998Z,32.72
2022-08-17T16:57:32.195Z,32.28
2022-08-17T17:00:02.715Z,32.30
2022-08-17T17:02:36.680Z,32.01
2022-08-17T17:05:10.391Z,31.64
2022-08-17T17:07:48.676Z,31.48
2022-08-17T17:10:22.071Z,31.48
2022-08-17T17:13:02.715Z,31.26
2022-08-17T17:15:54.407Z,31.18
2022-08-17T17:18:33.199Z,31.01
2022-08-17T17:21:02.512Z,30.88
2022-08-17T17:23:51.140Z,30.65
2022-08-17T17:26:30.660Z,30.53
2022-08-17T17:29:13.138Z,30.33
2022-08-17T17:31:56.076Z,30.41
2022-08-17T17:34:27.628Z,30.44
2022-08-17T17:36:59.962Z,30.37
2022-08-17T17:39:42.856Z,30.24
2022-08-17T17:42:20.304Z,30.15
2022-08-17T17:45:00.659Z,29.94
2022-08-17T17:47:32.398Z,30.00
2022-08-17T17:50:03.687Z,29.92
2022-08-17T17:52:41.078Z,28.61
2022-08-17T17:55:25.584Z,28.66
2022-08-17T17:58:04.614Z,28.63
2022-08-17T18:00:45.888Z,28.27
2022-08-17T18:03:28.906Z,28.12
2022-08-17T18:06:15.033Z,28.17
2022-08-17T18:08:54.870Z,28.13
2022-08-17T18:11:42.398Z,28.10
2022-08-17T18:14:38.725Z,28.25
2022-08-17T18:17:07.948Z,28.09
2022-08-17T18:19:41.483Z,27.82
2022-08-17T18:22:14.242Z,27.70
2022-08-17T18:24:45.469Z,27.67
2022-08-17T18:27:23.320Z,27.30
2022-08-17T18:29:54.037Z,27.44
2022-08-17T18:32:36.087Z,27.49
2022-08-17T18:35:32.696Z,27.55
2022-08-17T18:38:20.951Z,27.24
2022-08-17T18:41:01.366Z,27.13
2022-08-17T18:43:44.104Z,27.21
2022-08-17T18:46:29.686Z,27.12
2022-08-17T18:49:02.218Z,26.91
2022-08-17T18:51:40.557Z,27.16
2022-08-17T18:54:18.835Z,27.06
2022-08-17T18:56:54.205Z,26.80
2022-08-17T18:59:28.837Z,26.79
2022-08-17T19:02:27.344Z,26.67
2022-08-17T19:05:08.996Z,26.40
2022-08-17T19:07:41.869Z,26.44
2022-08-17T19:10:20.555Z,26.19
2022-08-17T19:12:55.529Z,26.31
2022-08-17T19:15:35.829Z,26.35
2022-08-17T19:18:15.122Z,26.28
2022-08-17T19:20:52.194Z,26.35
2022-08-17T19:23:28.892Z,26.11
2022-08-17T19:26:01.889Z,25.90
2022-08-17T19:28:37.917Z,25.71
2022-08-17T19:31:11.199Z,26.06
2022-08-17T19:33:40.048Z,25.89
2022-08-17T19:36:16.371Z,25.89
2022-08-17T19:38:59.815Z,25.89
2022-08-17T19:41:35.323Z,25.81
2022-08-17T19:44:31.319Z,25.75
2022-08-17T19:47:10.499Z,25.57
2022-08-17T19:49:53.468Z,25.75
2022-08-17T19:52:41.787Z,25.24
2022-08-17T19:55:20.954Z,25.48
2022-08-17T19:58:00.796Z,25.60
2022-08-17T20:00:31.626Z,25.49
2022-08-17T20:03:06.511Z,25.56
2022-08-17T20:06:08.689Z,25.25
2022-08-17T20:08:31.728Z,25.28
2022-08-17T20:11:08.816Z,25.51
2022-08-17T20:13:41.772Z,25.58
2022-08-17T20:16:12.139Z,25.34
2022-08-17T20:18:59.357Z,25.07
2022-08-17T20:21:35.711Z,24.86
2022-08-17T20:24:14.311Z,24.96
2022-08-17T20:26:57.884Z,24.80
2022-08-17T20:29:39.880Z,24.86
2022-08-17T20:32:19.365Z,24.94
2022-08-17T20:34:49.156Z,24.36
2022-08-17T20:37:31.283Z,24.84
2022-08-17T20:40:20.727Z,24.82
2022-08-17T20:42:51.275Z,24.75
2022-08-17T20:46:10.667Z,24.62
2022-08-17T20:48:43.914Z,24.71
2022-08-17T20:51:19.320Z,24.59
2022-08-17T20:53:59.410Z,24.60
2022-08-17T20:56:52.053Z,24.94
2022-08-17T20:59:56.414Z,24.74
2022-08-17T21:02:28.473Z,24.60
2022-08-17T21:05:35.462Z,24.49
2022-08-17T21:08:16.654Z,24.35
2022-08-17T21:10:48.163Z,24.59
2022-08-17T21:13:44.654Z,24.37
2022-08-17T21:16:41.380Z,24.48
2022-08-17T21:19:30.924Z,24.40
2022-08-17T21:22:13.784Z,24.33
2022-08-17T21:24:51.968Z,24.29
2022-08-17T21:27:31.063Z,24.25
2022-08-17T21:30:32.615Z,24.22
2022-08-17T21:33:29.588Z,24.15
2022-08-17T21:36:27.212Z,24.48
2022-08-17T21:39:06.435Z,24.20
2022-08-17T21:41:46.449Z,24.15
2022-08-17T21:44:30.495Z,24.18
2022-08-17T21:47:16.649Z,23.85
2022-08-17T21:49:47.019Z,23.94
2022-08-17T21:52:17.806Z,24.06
2022-08-17T21:54:52.308Z,24.11
2022-08-17T21:57:24.537Z,24.07
2022-08-17T21:59:56.636Z,23.85
2022-08-17T22:02:28.425Z,23.92
2022-08-17T22:05:01.869Z,23.86
2022-08-17T22:07:40.285Z,23.84
2022-08-17T22:10:27.188Z,23.62
2022-08-17T22:13:16.810Z,23.71
2022-08-17T22:15:48.564Z,23.68
2022-08-17T22:18:22.817Z,23.40
2022-08-17T22:20:56.341Z,23.46
2022-08-17T22:23:46.962Z,23.39
2022-08-17T22:26:18.573Z,23.48
2022-08-17T22:28:52.866Z,22.31
2022-08-17T22:31:25.042Z,22.75
2022-08-17T22:34:11.462Z,22.94
2022-08-17T22:36:43.238Z,22.76
2022-08-17T22:39:42.482Z,22.59
2022-08-17T22:42:15.740Z,22.87
2022-08-17T22:44:50.363Z,22.86
2022-08-17T22:47:31.824Z,23.09
2022-08-17T22:50:03.867Z,22.96
2022-08-17T22:52:56.814Z,22.94
2022-08-17T22:55:44.078Z,23.09
2022-08-17T22:58:32.242Z,23.25
2022-08-17T23:01:24.197Z,23.10
2022-08-17T23:03:55.569Z,23.06
2022-08-17T23:06:25.349Z,23.03
2022-08-17T23:08:57.762Z,23.22
2022-08-17T23:11:42.921Z,22.86
2022-08-17T23:14:20.695Z,22.90
2022-08-17T23:16:51.016Z,22.88
2022-08-17T23:19:22.305Z,22.51
2022-08-17T23:21:55.465Z,22.55
2022-08-17T23:24:27.685Z,22.48
2022-08-17T23:26:58.212Z,22.68
2022-08-17T23:29:29.442Z,22.30
2022-08-17T23:32:01.401Z,22.18
2022-08-17T23:34:30.352Z,22.32
2022-08-17T23:37:02.370Z,22.29
2022-08-17T23:39:32.862Z,22.22
2022-08-17T23:42:05.413Z,22.14
2022-08-17T23:44:34.507Z,22.26
2022-08-17T23:47:05.070Z,22.23
2022-08-17T23:49:33.960Z,22.07
2022-08-17T23:52:04.440Z,22.13
2022-08-17T23:54:43.838Z,22.13
2022-08-17T23:57:14.454Z,22.13
2022-08-17T23:59:44.511Z,21.85
